createdAt,value
2019-04-22T00:00:36.725Z,10.37
2019-04-22T00:01:35.064Z,10.37
2019-04-22T00:03:47.522Z,10.39
2019-04-22T00:04:51.087Z,10.30
2019-04-22T00:07:03.311Z,10.21
2019-04-22T00:08:03.471Z,10.32
2019-04-22T00:09:11.098Z,10.34
2019-04-22T00:11:16.112Z,10.37
2019-04-22T00:12:11.214Z,10.36
2019-04-22T00:14:08.489Z,10.40
2019-04-22T00:15:08.045Z,10.43
2019-04-22T00:17:23.309Z,10.37
2019-04-22T00:18:40.400Z,10.33
2019-04-22T00:20:11.630Z,10.34
2019-04-22T00:21:12.734Z,10.28
2019-04-22T00:22:08.071Z,10.21
2019-04-22T00:23:04.062Z,10.26
2019-04-22T00:24:04.640Z,10.18
2019-04-22T00:25:23.580Z,10.19
2019-04-22T00:27:20.303Z,10.09
2019-04-22T00:28:16.021Z,10.07
2019-04-22T00:31:20.998Z,9.89
2019-04-22T00:33:24.956Z,9.89
2019-04-22T00:34:22.549Z,9.91
2019-04-22T00:36:20.624Z,9.83
2019-04-22T00:37:17.161Z,9.82
2019-04-22T00:39:28.430Z,9.88
2019-04-22T00:40:21.056Z,9.94
2019-04-22T00:42:28.934Z,9.99
2019-04-22T00:43:24.408Z,9.94
2019-04-22T00:45:34.389Z,9.85
2019-04-22T00:46:33.033Z,9.81
2019-04-22T00:47:32.363Z,9.76
2019-04-22T00:48:38.342Z,9.83
2019-04-22T00:50:34.781Z,9.85
2019-04-22T00:51:44.907Z,9.85
2019-04-22T00:53:35.868Z,9.82
2019-04-22T00:54:37.696Z,9.73
2019-04-22T00:56:42.159Z,9.82
2019-04-22T00:57:38.788Z,9.73
2019-04-22T00:59:50.301Z,9.71
2019-04-22T01:00:51.867Z,9.63
2019-04-22T01:02:46.088Z,9.58
2019-04-22T01:03:43.111Z,9.56
2019-04-22T01:05:40.792Z,9.64
2019-04-22T01:06:39.812Z,9.49
2019-04-22T01:08:53.741Z,9.57
2019-04-22T01:09:46.368Z,9.63
2019-04-22T01:10:49.477Z,9.64
2019-04-22T01:11:45.057Z,9.57
2019-04-22T01:12:44.277Z,9.61
2019-04-22T01:13:45.594Z,9.58
2019-04-22T01:14:41.663Z,9.58
2019-04-22T01:16:04.277Z,9.63
2019-04-22T01:16:53.760Z,9.58
2019-04-22T01:18:50.116Z,9.53
2019-04-22T01:19:56.213Z,9.64
2019-04-22T01:21:49.782Z,9.60
2019-04-22T01:22:56.291Z,9.58
2019-04-22T01:24:59.288Z,9.63
2019-04-22T01:25:51.811Z,9.52
2019-04-22T01:27:46.173Z,9.46
2019-04-22T01:28:39.214Z,9.35
2019-04-22T01:30:43.032Z,9.45
2019-04-22T01:31:35.257Z,9.34
2019-04-22T01:33:43.911Z,9.31
2019-04-22T01:34:51.631Z,9.25
2019-04-22T01:37:01.086Z,9.25
2019-04-22T01:37:58.939Z,9.28
2019-04-22T01:40:09.880Z,9.40
2019-04-22T01:41:20.207Z,9.42
2019-04-22T01:43:18.560Z,9.52
2019-04-22T01:46:25.270Z,9.53
2019-04-22T01:47:25.102Z,9.39
2019-04-22T01:48:17.627Z,9.45
2019-04-22T01:49:25.750Z,9.48
2019-04-22T01:50:19.574Z,9.34
2019-04-22T01:51:28.310Z,9.35
2019-04-22T01:53:22.682Z,9.40
2019-04-22T01:54:35.179Z,9.30
2019-04-22T01:56:27.277Z,9.20
2019-04-22T01:57:22.677Z,9.20
2019-04-22T01:58:18.392Z,9.23
2019-04-22T02:00:16.404Z,9.04
2019-04-22T02:01:30.661Z,9.01
2019-04-22T02:02:28.838Z,9.02
2019-04-22T02:03:26.426Z,8.97
2019-04-22T02:04:32.487Z,8.79
2019-04-22T02:05:23.911Z,8.79
2019-04-22T02:06:33.199Z,8.93
2019-04-22T02:07:27.738Z,8.78
2019-04-22T02:08:33.102Z,8.99
2019-04-22T02:09:31.678Z,8.96
2019-04-22T02:10:33.534Z,8.99
2019-04-22T02:11:35.217Z,8.97
2019-04-22T02:12:25.907Z,9.02
2019-04-22T02:13:30.776Z,8.96
2019-04-22T02:14:27.010Z,9.13
2019-04-22T02:15:29.192Z,9.18
2019-04-22T02:16:27.364Z,9.13
2019-04-22T02:17:31.498Z,9.15
2019-04-22T02:18:31.806Z,9.16
2019-04-22T02:19:30.350Z,9.28
2019-04-22T02:20:25.393Z,9.24
2019-04-22T02:21:20.198Z,9.32
2019-04-22T02:22:42.339Z,9.25
2019-04-22T02:23:45.179Z,9.24
2019-04-22T02:24:26.383Z,9.23
2019-04-22T02:25:35.839Z,9.18
2019-04-22T02:26:34.209Z,9.13
2019-04-22T02:27:37.807Z,9.18
2019-04-22T02:29:31.069Z,8.99
2019-04-22T02:30:44.950Z,8.84
2019-04-22T02:31:36.053Z,8.93
2019-04-22T02:32:38.933Z,8.90
2019-04-22T02:33:58.564Z,9.02
2019-04-22T02:34:46.413Z,8.90
2019-04-22T02:35:34.159Z,8.88
2019-04-22T02:39:23.697Z,8.93
2019-04-22T02:40:50.752Z,8.78
2019-04-22T02:42:46.707Z,8.71
2019-04-22T02:43:49.203Z,8.65
2019-04-22T02:44:33.329Z,8.69
2019-04-22T02:45:41.733Z,8.75
2019-04-22T02:48:48.353Z,8.66
2019-04-22T02:49:33.857Z,8.55
2019-04-22T02:50:33.846Z,8.37
2019-04-22T02:51:27.842Z,8.53
2019-04-22T02:52:31.077Z,8.44
2019-04-22T02:54:12.255Z,8.37
2019-04-22T02:55:33.007Z,8.39
2019-04-22T02:56:31.317Z,8.32
2019-04-22T02:58:47.588Z,8.32
2019-04-22T02:59:54.627Z,8.29
2019-04-22T03:00:40.264Z,8.26
2019-04-22T03:01:41.163Z,8.35
2019-04-22T03:03:41.807Z,8.28
2019-04-22T03:04:22.806Z,8.22
2019-04-22T03:05:36.387Z,8.35
2019-04-22T03:07:55.903Z,8.51
2019-04-22T03:08:30.261Z,8.65
2019-04-22T03:10:37.176Z,8.63
2019-04-22T03:11:33.457Z,8.54
2019-04-22T03:12:29.057Z,8.58
2019-04-22T03:13:40.487Z,8.55
2019-04-22T03:15:38.052Z,8.51
2019-04-22T03:16:33.324Z,8.36
2019-04-22T03:17:37.216Z,8.40
2019-04-22T03:19:44.335Z,8.35
2019-04-22T03:20:29.138Z,8.35
2019-04-22T03:21:33.761Z,8.39
2019-04-22T03:22:28.042Z,8.39
2019-04-22T03:24:36.265Z,8.37
2019-04-22T03:26:01.262Z,8.37
2019-04-22T03:26:31.784Z,8.33
2019-04-22T03:27:30.046Z,8.29
2019-04-22T03:28:43.212Z,8.10
2019-04-22T03:29:40.091Z,8.10
2019-04-22T03:32:56.307Z,8.33
2019-04-22T03:35:19.824Z,8.35
2019-04-22T03:38:51.719Z,8.54
2019-04-22T03:40:38.810Z,8.53
2019-04-22T03:42:45.720Z,8.51
2019-04-22T03:43:35.141Z,8.37
2019-04-22T03:45:28.230Z,8.30
2019-04-22T03:46:32.578Z,8.17
2019-04-22T03:47:36.690Z,8.10
2019-04-22T03:48:45.432Z,7.92
2019-04-22T03:49:37.256Z,7.85
2019-04-22T03:53:55.466Z,7.77
2019-04-22T03:54:40.005Z,7.69
2019-04-22T03:55:28.967Z,7.67
2019-04-22T03:57:07.195Z,7.71
2019-04-22T03:58:32.456Z,7.72
2019-04-22T03:59:48.136Z,7.67
2019-04-22T04:01:46.415Z,7.85
2019-04-22T04:02:38.863Z,7.85
2019-04-22T04:03:28.608Z,7.92
2019-04-22T04:04:35.999Z,7.92
2019-04-22T04:06:45.928Z,7.93
2019-04-22T04:07:45.611Z,7.84
2019-04-22T04:08:38.930Z,7.87
2019-04-22T04:09:33.300Z,7.87
2019-04-22T04:11:45.171Z,7.63
2019-04-22T04:12:28.389Z,7.67
2019-04-22T04:13:36.889Z,7.63
2019-04-22T04:14:35.909Z,7.56
2019-04-22T04:16:41.279Z,7.63
2019-04-22T04:17:37.752Z,7.60
2019-04-22T04:18:44.573Z,7.72
2019-04-22T04:19:45.930Z,7.75
2019-04-22T04:21:37.939Z,7.69
2019-04-22T04:23:37.841Z,7.63
2019-04-22T04:24:44.191Z,7.63
2019-04-22T04:26:48.128Z,7.75
2019-04-22T04:28:06.330Z,7.81
2019-04-22T04:29:51.466Z,7.79
2019-04-22T04:31:35.762Z,7.87
2019-04-22T04:35:06.281Z,7.87
2019-04-22T04:36:34.586Z,7.90
2019-04-22T04:37:46.752Z,7.87
2019-04-22T04:38:43.004Z,7.90
2019-04-22T04:39:40.528Z,7.85
2019-04-22T04:42:18.124Z,7.89
2019-04-22T04:43:35.403Z,8.04
2019-04-22T04:47:43.907Z,8.08
2019-04-22T04:48:43.924Z,8.04
2019-04-22T04:49:34.855Z,8.02
2019-04-22T04:50:42.331Z,8.07
2019-04-22T04:51:37.767Z,8.04
2019-04-22T04:52:50.848Z,8.08
2019-04-22T04:53:27.178Z,8.08
2019-04-22T05:01:35.465Z,8.35
2019-04-22T05:02:40.526Z,8.35
2019-04-22T05:03:39.730Z,8.30
2019-04-22T05:05:31.688Z,8.40
2019-04-22T05:07:36.107Z,8.44
2019-04-22T05:08:54.695Z,8.44
2019-04-22T05:09:29.614Z,8.44
2019-04-22T05:10:41.203Z,8.37
2019-04-22T05:12:45.071Z,8.33
2019-04-22T05:13:40.374Z,8.33
2019-04-22T05:16:34.557Z,8.36
2019-04-22T05:17:41.248Z,8.32
2019-04-22T05:18:40.541Z,8.35
2019-04-22T05:19:33.396Z,8.32
2019-04-22T05:21:24.259Z,8.39
2019-04-22T05:23:30.465Z,8.53
2019-04-22T05:24:31.419Z,8.51
2019-04-22T05:25:43.980Z,8.54
2019-04-22T05:28:23.695Z,8.72
2019-04-22T05:30:26.810Z,8.75
2019-04-22T05:31:35.556Z,8.84
2019-04-22T05:32:31.251Z,8.79
2019-04-22T05:33:30.591Z,8.83
2019-04-22T05:34:41.225Z,8.84
2019-04-22T05:35:26.335Z,8.87
2019-04-22T05:36:28.558Z,8.73
2019-04-22T05:37:29.488Z,8.81
2019-04-22T05:38:34.937Z,8.91
2019-04-22T05:39:24.589Z,8.81
2019-04-22T05:41:30.448Z,8.94
2019-04-22T05:42:26.369Z,9.01
2019-04-22T05:43:27.453Z,8.94
2019-04-22T05:44:29.418Z,8.91
2019-04-22T05:45:28.255Z,9.05
2019-04-22T05:46:28.556Z,9.15
2019-04-22T05:47:26.060Z,9.06
2019-04-22T05:48:27.403Z,9.27
2019-04-22T05:49:23.585Z,9.31
2019-04-22T05:50:23.866Z,9.21
2019-04-22T05:51:31.541Z,9.32
2019-04-22T05:52:29.928Z,9.31
2019-04-22T05:53:31.189Z,9.40
2019-04-22T05:54:27.860Z,9.39
2019-04-22T05:55:47.918Z,9.40
2019-04-22T05:56:34.246Z,9.48
2019-04-22T05:57:26.102Z,9.53
2019-04-22T05:58:32.935Z,9.60
2019-04-22T05:59:24.981Z,9.63
2019-04-22T06:00:37.022Z,9.76
2019-04-22T06:02:39.324Z,9.73
2019-04-22T06:03:35.325Z,9.79
2019-04-22T06:04:25.703Z,9.78
2019-04-22T06:05:24.930Z,9.94
2019-04-22T06:06:25.122Z,10.03
2019-04-22T06:07:29.514Z,10.12
2019-04-22T06:08:24.231Z,10.33
2019-04-22T06:09:38.912Z,10.37
2019-04-22T06:11:36.244Z,10.42
2019-04-22T06:12:23.452Z,10.59
2019-04-22T06:13:26.751Z,10.62
2019-04-22T06:14:20.387Z,10.68
2019-04-22T06:15:23.467Z,10.77
2019-04-22T06:16:31.103Z,10.84
2019-04-22T06:17:31.320Z,10.80
2019-04-22T06:18:27.281Z,10.88
2019-04-22T06:19:28.218Z,10.95
2019-04-22T06:20:23.760Z,11.03
2019-04-22T06:21:31.320Z,11.02
2019-04-22T06:25:47.868Z,11.36
2019-04-22T06:27:28.819Z,11.47
2019-04-22T06:28:35.279Z,11.44
2019-04-22T06:29:27.114Z,11.53
2019-04-22T06:30:41.488Z,11.54
2019-04-22T06:31:37.212Z,11.64
2019-04-22T06:33:27.381Z,11.72
2019-04-22T06:34:28.874Z,11.74
2019-04-22T06:36:29.492Z,11.93
2019-04-22T06:37:25.755Z,11.90
2019-04-22T06:38:43.178Z,12.06
2019-04-22T06:39:39.572Z,11.99
2019-04-22T06:40:29.204Z,12.09
2019-04-22T06:41:27.355Z,12.16
2019-04-22T06:42:28.273Z,12.21
2019-04-22T06:43:31.848Z,12.37
2019-04-22T06:46:29.862Z,12.39
2019-04-22T06:47:40.091Z,12.48
2019-04-22T06:48:30.066Z,12.63
2019-04-22T06:49:31.888Z,12.67
2019-04-22T06:50:33.932Z,12.66
2019-04-22T06:51:29.623Z,12.74
2019-04-22T06:52:22.019Z,12.87
2019-04-22T06:53:29.782Z,12.81
2019-04-22T06:54:28.875Z,12.88
2019-04-22T06:55:33.250Z,12.87
2019-04-22T06:56:21.872Z,12.92
2019-04-22T06:57:25.444Z,13.00
2019-04-22T06:58:42.574Z,13.06
2019-04-22T06:59:26.600Z,13.02
2019-04-22T07:01:27.660Z,13.15
2019-04-22T07:02:39.010Z,13.18
2019-04-22T07:04:28.201Z,13.18
2019-04-22T07:05:27.538Z,13.18
2019-04-22T07:06:37.249Z,13.15
2019-04-22T07:07:23.784Z,13.24
2019-04-22T07:08:59.538Z,13.30
2019-04-22T07:11:26.575Z,13.37
2019-04-22T07:13:27.459Z,13.49
2019-04-22T07:14:22.752Z,13.51
2019-04-22T07:15:45.566Z,13.44
2019-04-22T07:16:31.950Z,13.55
2019-04-22T07:18:33.083Z,13.49
2019-04-22T07:19:28.152Z,13.59
2019-04-22T07:20:30.422Z,13.55
2019-04-22T07:21:26.105Z,13.58
2019-04-22T07:22:30.611Z,13.62
2019-04-22T07:23:31.717Z,13.56
2019-04-22T07:25:23.438Z,13.67
2019-04-22T07:26:24.497Z,13.69
2019-04-22T07:27:40.470Z,13.71
2019-04-22T07:28:37.255Z,13.73
2019-04-22T07:29:30.969Z,13.67
2019-04-22T07:30:26.243Z,13.70
2019-04-22T07:31:29.955Z,13.80
2019-04-22T07:32:39.259Z,13.76
2019-04-22T07:33:34.355Z,13.73
2019-04-22T07:34:33.144Z,13.76
2019-04-22T07:35:32.167Z,13.95
2019-04-22T07:37:36.782Z,13.96
2019-04-22T07:38:26.650Z,14.02
2019-04-22T07:39:32.633Z,13.98
2019-04-22T07:40:26.973Z,13.98
2019-04-22T07:41:29.021Z,14.13
2019-04-22T07:43:41.902Z,14.17
2019-04-22T07:44:47.683Z,14.19
2019-04-22T07:45:29.552Z,14.27
2019-04-22T07:46:26.617Z,14.21
2019-04-22T07:48:33.878Z,14.21
2019-04-22T07:49:33.919Z,14.24
2019-04-22T07:51:28.717Z,14.27
2019-04-22T07:52:32.006Z,14.29
2019-04-22T07:53:23.028Z,14.43
2019-04-22T07:54:25.895Z,14.44
2019-04-22T07:55:27.327Z,14.47
2019-04-22T07:56:24.731Z,14.46
2019-04-22T07:57:32.470Z,14.60
2019-04-22T07:59:28.037Z,14.67
2019-04-22T08:00:34.395Z,14.64
2019-04-22T08:02:37.861Z,14.71
2019-04-22T08:03:47.709Z,14.83
2019-04-22T08:05:45.816Z,14.90
2019-04-22T08:06:36.224Z,14.86
2019-04-22T08:07:36.054Z,14.93
2019-04-22T08:08:37.318Z,15.01
2019-04-22T08:12:39.083Z,15.06
2019-04-22T08:13:38.788Z,15.12
2019-04-22T08:14:34.476Z,15.11
2019-04-22T08:15:41.768Z,15.21
2019-04-22T08:16:38.334Z,15.36
2019-04-22T08:18:34.329Z,15.27
2019-04-22T08:19:37.306Z,15.39
2019-04-22T08:20:39.178Z,15.52
2019-04-22T08:21:38.215Z,15.49
2019-04-22T08:22:39.936Z,15.56
2019-04-22T08:23:39.915Z,15.60
2019-04-22T08:25:38.839Z,15.82
2019-04-22T08:26:42.048Z,15.81
2019-04-22T08:27:39.537Z,15.85
2019-04-22T08:28:39.295Z,15.85
2019-04-22T08:30:00.105Z,15.92
2019-04-22T08:31:48.609Z,15.92
2019-04-22T08:33:35.369Z,15.96
2019-04-22T08:34:37.303Z,15.97
2019-04-22T08:35:52.150Z,16.07
2019-04-22T08:36:49.577Z,16.16
2019-04-22T08:37:49.270Z,16.18
2019-04-22T08:38:39.421Z,16.16
2019-04-22T08:39:35.824Z,16.20
2019-04-22T08:40:43.251Z,16.26
2019-04-22T08:42:50.310Z,16.26
2019-04-22T08:43:47.656Z,16.45
2019-04-22T08:44:56.981Z,16.52
2019-04-22T08:45:39.018Z,16.53
2019-04-22T08:47:38.452Z,16.73
2019-04-22T08:48:36.718Z,16.78
2019-04-22T08:49:42.577Z,16.85
2019-04-22T08:50:38.976Z,16.85
2019-04-22T08:51:36.016Z,16.85
2019-04-22T08:52:33.803Z,16.98
2019-04-22T08:53:41.501Z,16.96
2019-04-22T08:54:36.111Z,17.08
2019-04-22T08:55:40.394Z,17.04
2019-04-22T08:57:46.958Z,17.22
2019-04-22T08:59:37.391Z,17.33
2019-04-22T09:00:41.410Z,17.38
2019-04-22T09:01:32.987Z,17.47
2019-04-22T09:02:43.535Z,17.59
2019-04-22T09:03:39.747Z,17.73
2019-04-22T09:04:31.228Z,17.82
2019-04-22T09:05:52.134Z,17.89
2019-04-22T09:06:49.423Z,17.88
2019-04-22T09:07:39.729Z,17.87
2019-04-22T09:08:45.637Z,17.88
2019-04-22T09:09:42.352Z,17.97
2019-04-22T09:10:37.529Z,17.97
2019-04-22T09:11:41.998Z,18.09
2019-04-22T09:12:53.350Z,18.13
2019-04-22T09:13:35.531Z,18.13
2019-04-22T09:14:37.818Z,18.21
2019-04-22T09:15:34.490Z,18.22
2019-04-22T09:16:39.865Z,18.31
2019-04-22T09:17:34.776Z,18.21
2019-04-22T09:18:42.377Z,18.29
2019-04-22T09:19:38.483Z,18.28
2019-04-22T09:20:45.121Z,18.34
2019-04-22T09:21:38.929Z,18.33
2019-04-22T09:22:38.583Z,18.33
2019-04-22T09:24:35.685Z,18.46
2019-04-22T09:25:36.026Z,18.54
2019-04-22T09:26:36.251Z,18.59
2019-04-22T09:27:39.976Z,18.64
2019-04-22T09:28:37.796Z,18.74
2019-04-22T09:29:39.834Z,18.86
2019-04-22T09:30:40.500Z,18.91
2019-04-22T09:31:39.167Z,18.92
2019-04-22T09:32:38.281Z,19.05
2019-04-22T09:33:36.843Z,19.14
2019-04-22T09:34:40.247Z,19.23
2019-04-22T09:35:37.483Z,19.14
2019-04-22T09:37:01.543Z,19.17
2019-04-22T09:37:42.039Z,19.23
2019-04-22T09:38:38.277Z,19.24
2019-04-22T09:39:41.288Z,19.39
2019-04-22T09:40:34.608Z,19.43
2019-04-22T09:41:41.245Z,19.47
2019-04-22T09:42:39.687Z,19.58
2019-04-22T09:43:45.478Z,19.63
2019-04-22T09:45:41.856Z,19.61
2019-04-22T09:46:41.211Z,19.76
2019-04-22T09:47:40.876Z,19.90
2019-04-22T09:49:46.876Z,20.03
2019-04-22T09:51:37.345Z,20.08
2019-04-22T09:52:35.944Z,20.15
2019-04-22T09:54:51.052Z,20.16
2019-04-22T09:55:37.404Z,20.24
2019-04-22T09:56:38.779Z,20.34
2019-04-22T09:57:53.006Z,20.38
2019-04-22T09:58:39.405Z,20.46
2019-04-22T09:59:35.300Z,20.49
2019-04-22T10:00:42.689Z,20.46
2019-04-22T10:01:34.494Z,20.43
2019-04-22T10:02:42.694Z,20.49
2019-04-22T10:03:36.795Z,20.68
2019-04-22T10:04:39.505Z,20.71
2019-04-22T10:05:40.846Z,20.66
2019-04-22T10:06:54.214Z,20.77
2019-04-22T10:07:52.526Z,20.80
2019-04-22T10:08:40.720Z,20.91
2019-04-22T10:09:52.849Z,20.99
2019-04-22T10:10:48.977Z,20.93
2019-04-22T10:11:37.675Z,21.01
2019-04-22T10:12:43.178Z,20.91
2019-04-22T10:13:40.593Z,21.01
2019-04-22T10:14:38.418Z,20.98
2019-04-22T10:15:39.819Z,21.17
2019-04-22T10:16:53.951Z,21.13
2019-04-22T10:17:36.480Z,21.23
2019-04-22T10:18:38.694Z,21.29
2019-04-22T10:19:36.931Z,21.19
2019-04-22T10:20:38.173Z,21.27
2019-04-22T10:21:44.677Z,21.30
2019-04-22T10:22:39.961Z,21.27
2019-04-22T10:23:41.212Z,21.42
2019-04-22T10:24:37.023Z,21.39
2019-04-22T10:25:35.403Z,21.45
2019-04-22T10:26:39.530Z,21.53
2019-04-22T10:27:39.844Z,21.51
2019-04-22T10:28:40.024Z,21.53
2019-04-22T10:29:41.672Z,21.51
2019-04-22T10:30:43.945Z,21.61
2019-04-22T10:31:46.235Z,21.79
2019-04-22T10:32:40.287Z,21.76
2019-04-22T10:33:30.920Z,21.83
2019-04-22T10:34:26.051Z,21.92
2019-04-22T10:35:17.215Z,21.98
2019-04-22T10:36:13.130Z,22.13
2019-04-22T10:37:15.248Z,22.16
2019-04-22T10:38:12.468Z,22.16
2019-04-22T10:39:12.652Z,22.23
2019-04-22T10:40:13.627Z,22.31
2019-04-22T10:41:12.431Z,22.34
2019-04-22T10:42:13.374Z,22.52
2019-04-22T10:43:12.228Z,22.25
2019-04-22T10:44:13.059Z,22.35
2019-04-22T10:45:12.423Z,22.41
2019-04-22T10:46:13.892Z,22.65
2019-04-22T10:47:12.276Z,22.71
2019-04-22T10:48:12.456Z,22.69
2019-04-22T10:49:12.632Z,22.62
2019-04-22T10:50:12.476Z,22.67
2019-04-22T10:51:12.734Z,22.82
2019-04-22T10:52:12.934Z,22.93
2019-04-22T10:53:13.301Z,22.94
2019-04-22T10:54:13.576Z,22.89
2019-04-22T10:55:13.673Z,22.92
2019-04-22T10:56:12.761Z,22.96
2019-04-22T10:57:13.840Z,22.96
2019-04-22T10:58:12.848Z,23.12
2019-04-22T10:59:12.435Z,23.14
2019-04-22T11:00:13.623Z,23.27
2019-04-22T11:01:13.607Z,23.29
2019-04-22T11:02:13.660Z,23.46
2019-04-22T11:03:13.910Z,23.55
2019-04-22T11:04:13.293Z,23.67
2019-04-22T11:05:12.502Z,23.83
2019-04-22T11:06:12.516Z,23.90
2019-04-22T11:07:13.566Z,24.22
2019-04-22T11:08:22.539Z,24.53
2019-04-22T11:09:12.874Z,24.91
2019-04-22T11:10:27.796Z,25.01
2019-04-22T11:11:26.359Z,25.15
2019-04-22T11:12:17.674Z,25.34
2019-04-22T11:13:13.711Z,25.34
2019-04-22T11:14:12.908Z,25.31
2019-04-22T11:15:13.757Z,25.37
2019-04-22T11:16:13.796Z,25.25
2019-04-22T11:17:13.469Z,25.01
2019-04-22T11:18:13.488Z,24.95
2019-04-22T11:19:13.953Z,24.82
2019-04-22T11:20:13.453Z,24.67
2019-04-22T11:21:13.751Z,24.53
2019-04-22T11:22:18.769Z,24.44
2019-04-22T11:23:14.284Z,24.45
2019-04-22T11:24:12.769Z,24.38
2019-04-22T11:25:13.825Z,24.53
2019-04-22T11:26:12.802Z,24.42
2019-04-22T11:27:12.854Z,24.53
2019-04-22T11:28:13.690Z,24.52
2019-04-22T11:29:14.001Z,24.77
2019-04-22T11:30:13.856Z,24.79
2019-04-22T11:31:14.541Z,24.73
2019-04-22T11:32:12.985Z,24.87
2019-04-22T11:33:14.157Z,25.30
2019-04-22T11:34:13.047Z,26.18
2019-04-22T11:35:13.909Z,26.83
2019-04-22T11:36:13.597Z,27.33
2019-04-22T11:37:14.529Z,27.91
2019-04-22T11:38:13.064Z,28.48
2019-04-22T11:39:15.167Z,28.65
2019-04-22T11:40:19.256Z,28.90
2019-04-22T11:41:14.688Z,28.87
2019-04-22T11:42:14.030Z,28.95
2019-04-22T11:43:14.379Z,28.60
2019-04-22T11:44:13.068Z,28.66
2019-04-22T11:45:13.322Z,28.62
2019-04-22T11:46:13.405Z,28.62
2019-04-22T11:47:13.113Z,28.54
2019-04-22T11:48:13.288Z,28.58
2019-04-22T11:49:14.069Z,28.91
2019-04-22T11:50:13.165Z,29.00
2019-04-22T11:51:13.992Z,28.75
2019-04-22T11:52:14.854Z,28.50
2019-04-22T11:53:13.226Z,28.33
2019-04-22T11:54:14.613Z,28.23
2019-04-22T11:55:13.244Z,28.19
2019-04-22T11:56:13.272Z,28.10
2019-04-22T11:57:13.278Z,27.86
2019-04-22T11:58:14.752Z,27.74
2019-04-22T11:59:13.313Z,27.54
2019-04-22T12:00:14.588Z,27.67
2019-04-22T12:01:14.786Z,27.64
2019-04-22T12:02:16.116Z,27.84
2019-04-22T12:03:14.608Z,28.17
2019-04-22T12:04:13.810Z,28.33
2019-04-22T12:05:14.244Z,28.96
2019-04-22T12:06:13.594Z,29.78
2019-04-22T12:07:14.951Z,30.71
2019-04-22T12:08:13.468Z,31.48
2019-04-22T12:09:13.479Z,32.37
2019-04-22T12:10:24.747Z,32.88
2019-04-22T12:11:13.762Z,33.52
2019-04-22T12:12:13.956Z,33.83
2019-04-22T12:13:13.550Z,33.82
2019-04-22T12:14:13.926Z,33.61
2019-04-22T12:15:14.763Z,33.58
2019-04-22T12:16:13.679Z,33.70
2019-04-22T12:17:13.948Z,33.85
2019-04-22T12:18:15.162Z,33.76
2019-04-22T12:19:13.668Z,34.17
2019-04-22T12:20:14.560Z,34.61
2019-04-22T12:21:15.166Z,34.84
2019-04-22T12:22:15.242Z,35.18
2019-04-22T12:23:14.811Z,35.15
2019-04-22T12:24:15.056Z,35.35
2019-04-22T12:25:28.055Z,35.51
2019-04-22T12:26:17.522Z,35.76
2019-04-22T12:27:14.324Z,35.95
2019-04-22T12:28:15.074Z,36.03
2019-04-22T12:29:15.174Z,36.29
2019-04-22T12:30:14.798Z,36.01
2019-04-22T12:31:15.354Z,36.06
2019-04-22T12:32:13.942Z,35.93
2019-04-22T12:33:14.929Z,35.91
2019-04-22T12:34:15.361Z,36.00
2019-04-22T12:35:13.995Z,35.74
2019-04-22T12:36:14.930Z,36.07
2019-04-22T12:37:21.795Z,36.27
2019-04-22T12:38:15.279Z,36.21
2019-04-22T12:39:15.546Z,35.88
2019-04-22T12:40:25.985Z,35.74
2019-04-22T12:41:15.893Z,35.89
2019-04-22T12:42:15.340Z,36.11
2019-04-22T12:43:16.090Z,36.38
2019-04-22T12:44:15.015Z,36.60
2019-04-22T12:45:14.198Z,36.85
2019-04-22T12:46:14.515Z,36.82
2019-04-22T12:47:14.916Z,36.58
2019-04-22T12:48:14.968Z,36.57
2019-04-22T12:49:14.334Z,36.70
2019-04-22T12:50:20.512Z,36.79
2019-04-22T12:51:15.342Z,36.48
2019-04-22T12:52:24.128Z,36.51
2019-04-22T12:53:18.155Z,36.68
2019-04-22T12:54:15.165Z,36.87
2019-04-22T12:55:14.397Z,36.95
2019-04-22T12:56:15.399Z,37.23
2019-04-22T12:57:14.770Z,37.42
2019-04-22T12:58:15.689Z,37.36
2019-04-22T12:59:14.486Z,37.35
2019-04-22T13:00:15.633Z,37.31
2019-04-22T13:01:15.167Z,37.14
2019-04-22T13:02:15.489Z,36.99
2019-04-22T13:03:15.824Z,37.19
2019-04-22T13:04:17.601Z,37.35
2019-04-22T13:05:14.612Z,37.43
2019-04-22T13:06:14.637Z,37.38
2019-04-22T13:07:15.708Z,37.47
2019-04-22T13:08:15.824Z,37.24
2019-04-22T13:09:17.542Z,37.28
2019-04-22T13:10:15.642Z,37.31
2019-04-22T13:11:18.502Z,37.38
2019-04-22T13:12:15.212Z,37.62
2019-04-22T13:13:15.425Z,37.43
2019-04-22T13:14:15.031Z,37.26
2019-04-22T13:15:16.030Z,36.99
2019-04-22T13:16:15.371Z,36.94
2019-04-22T13:17:15.723Z,36.85
2019-04-22T13:18:27.010Z,37.01
2019-04-22T13:19:17.208Z,37.20
2019-04-22T13:20:16.957Z,37.32
2019-04-22T13:21:15.064Z,37.39
2019-04-22T13:22:14.970Z,37.24
2019-04-22T13:23:15.710Z,37.39
2019-04-22T13:24:18.024Z,37.58
2019-04-22T13:25:15.585Z,37.62
2019-04-22T13:26:15.211Z,37.83
2019-04-22T13:27:15.129Z,37.76
2019-04-22T13:28:15.530Z,37.62
2019-04-22T13:29:15.129Z,37.41
2019-04-22T13:30:16.415Z,37.16
2019-04-22T13:31:16.049Z,36.90
2019-04-22T13:32:16.560Z,36.80
2019-04-22T13:33:16.724Z,36.91
2019-04-22T13:34:24.341Z,36.52
2019-04-22T13:35:18.458Z,36.48
2019-04-22T13:36:15.927Z,36.21
2019-04-22T13:37:16.702Z,35.99
2019-04-22T13:38:15.313Z,36.29
2019-04-22T13:39:16.724Z,36.58
2019-04-22T13:40:15.335Z,36.86
2019-04-22T13:41:24.004Z,37.02
2019-04-22T13:42:19.390Z,36.99
2019-04-22T13:43:16.767Z,36.76
2019-04-22T13:44:16.643Z,36.57
2019-04-22T13:45:15.818Z,36.60
2019-04-22T13:46:16.771Z,36.97
2019-04-22T13:47:31.749Z,37.05
2019-04-22T13:48:35.880Z,37.14
2019-04-22T13:49:53.899Z,37.39
2019-04-22T13:50:49.910Z,37.35
2019-04-22T13:51:45.197Z,37.55
2019-04-22T13:52:48.579Z,37.42
2019-04-22T13:54:48.405Z,37.31
2019-04-22T13:56:40.172Z,36.97
2019-04-22T13:57:34.370Z,36.86
2019-04-22T13:58:31.528Z,36.83
2019-04-22T13:59:24.687Z,36.72
2019-04-22T14:00:16.332Z,37.01
2019-04-22T14:01:16.537Z,37.10
2019-04-22T14:02:20.330Z,37.23
2019-04-22T14:03:24.533Z,37.07
2019-04-22T14:05:19.829Z,36.87
2019-04-22T14:06:20.683Z,36.97
2019-04-22T14:08:24.972Z,36.43
2019-04-22T14:09:24.476Z,36.90
2019-04-22T14:10:24.848Z,37.29
2019-04-22T14:11:34.536Z,37.58
2019-04-22T14:12:24.545Z,37.64
2019-04-22T14:13:24.002Z,37.64
2019-04-22T14:14:24.143Z,37.02
2019-04-22T14:15:24.341Z,36.01
2019-04-22T14:16:24.820Z,35.15
2019-04-22T14:17:25.025Z,34.09
2019-04-22T14:18:25.225Z,33.55
2019-04-22T14:19:24.063Z,33.07
2019-04-22T14:20:26.977Z,32.37
2019-04-22T14:21:24.935Z,32.43
2019-04-22T14:22:24.119Z,31.96
2019-04-22T14:23:24.658Z,31.62
2019-04-22T14:24:24.153Z,31.46
2019-04-22T14:25:24.841Z,31.35
2019-04-22T14:26:25.020Z,31.28
2019-04-22T14:27:37.282Z,31.24
2019-04-22T14:28:25.488Z,31.30
2019-04-22T14:29:24.239Z,31.04
2019-04-22T14:30:24.510Z,30.96
2019-04-22T14:31:24.373Z,30.78
2019-04-22T14:32:27.994Z,30.76
2019-04-22T14:33:24.603Z,30.53
2019-04-22T14:34:24.791Z,30.46
2019-04-22T14:35:25.001Z,30.31
2019-04-22T14:36:25.388Z,30.31
2019-04-22T14:37:24.418Z,30.49
2019-04-22T14:38:25.844Z,30.31
2019-04-22T14:39:24.408Z,30.45
2019-04-22T14:40:26.279Z,30.56
2019-04-22T14:41:49.766Z,30.52
2019-04-22T14:42:45.654Z,30.34
2019-04-22T14:43:57.945Z,30.54
2019-04-22T14:45:58.698Z,30.86
2019-04-22T14:46:58.584Z,31.21
2019-04-22T14:47:52.206Z,31.46
2019-04-22T14:48:50.832Z,32.15
2019-04-22T14:49:47.383Z,32.67
2019-04-22T14:50:46.762Z,33.06
2019-04-22T14:51:48.967Z,33.33
2019-04-22T14:52:49.139Z,33.52
2019-04-22T14:53:45.857Z,33.98
2019-04-22T14:54:38.794Z,34.41
2019-04-22T14:55:29.051Z,35.01
2019-04-22T14:56:24.694Z,35.35
2019-04-22T14:57:26.733Z,35.55
2019-04-22T14:58:24.734Z,35.40
2019-04-22T14:59:25.051Z,35.73
2019-04-22T15:00:26.137Z,36.17
2019-04-22T15:01:24.780Z,36.45
2019-04-22T15:02:25.579Z,36.60
2019-04-22T15:03:25.973Z,36.91
2019-04-22T15:04:24.831Z,37.28
2019-04-22T15:05:26.059Z,37.36
2019-04-22T15:06:26.294Z,37.38
2019-04-22T15:07:25.230Z,37.50
2019-04-22T15:08:24.897Z,37.48
2019-04-22T15:09:26.038Z,37.62
2019-04-22T15:10:26.113Z,37.41
2019-04-22T15:11:24.953Z,37.26
2019-04-22T15:12:31.203Z,37.07
2019-04-22T15:13:25.351Z,37.01
2019-04-22T15:14:25.639Z,37.09
2019-04-22T15:15:25.026Z,37.24
2019-04-22T15:16:25.862Z,37.09
2019-04-22T15:17:25.071Z,37.01
2019-04-22T15:18:26.059Z,37.05
2019-04-22T15:19:25.618Z,37.13
2019-04-22T15:20:25.796Z,37.12
2019-04-22T15:21:25.130Z,36.83
2019-04-22T15:22:26.399Z,36.73
2019-04-22T15:23:26.556Z,36.38
2019-04-22T15:24:26.859Z,35.79
2019-04-22T15:25:26.252Z,35.54